sensor_id;sensor_type;location;lat;lon;timestamp;P1;durP1;ratioP1;P2;durP2;ratioP2
5416;SDS011;2731;50.754;12.990;2022-08-25T00:01:47;22.42;;;16.58;;
5416;SDS011;2731;50.754;12.990;2022-08-25T00:04:15;24.13;;;14.52;;
5416;SDS011;2731;50.754;12.990;2022-08-25T00:06:42;23.45;;;15.85;;
5416;SDS011;2731;50.754;12.990;2022-08-25T00:09:08;21.08;;;17.30;;
5416;SDS011;2731;50.754;12.990;2022-08-25T00:11:35;19.52;;;15.55;;
5416;SDS011;2731;50.754;12.990;2022-08-25T00:14:04;19.85;;;16.17;;
5416;SDS011;2731;50.754;12.990;2022-08-25T00:16:35;21.60;;;15.60;;
5416;SDS011;2731;50.754;12.990;2022-08-25T00:19:03;22.77;;;16.33;;
5416;SDS011;2731;50.754;12.990;2022-08-25T00:21:30;20.60;;;16.45;;
5416;SDS011;2731;50.754;12.990;2022-08-25T00:23:56;18.73;;;15.70;;
5416;SDS011;2731;50.754;12.990;2022-08-25T00:26:21;25.58;;;16.92;;
5416;SDS011;2731;50.754;12.990;2022-08-25T00:28:47;19.90;;;15.63;;
5416;SDS011;2731;50.754;12.990;2022-08-25T00:31:14;21.55;;;16.08;;
5416;SDS011;2731;50.754;12.990;2022-08-25T00:33:42;21.17;;;16.23;;
5416;SDS011;2731;50.754;12.990;2022-08-25T00:36:08;19.45;;;15.45;;
5416;SDS011;2731;50.754;12.990;2022-08-25T00:38:36;22.02;;;17.02;;
5416;SDS011;2731;50.754;12.990;2022-08-25T00:41:04;21.55;;;16.90;;
5416;SDS011;2731;50.754;12.990;2022-08-25T00:43:34;22.13;;;16.75;;
5416;SDS011;2731;50.754;12.990;2022-08-25T00:46:08;22.05;;;16.75;;
5416;SDS011;2731;50.754;12.990;2022-08-25T00:48:35;22.75;;;17.00;;
5416;SDS011;2731;50.754;12.990;2022-08-25T00:51:01;22.95;;;16.38;;
5416;SDS011;2731;50.754;12.990;2022-08-25T00:53:28;19.83;;;16.30;;
5416;SDS011;2731;50.754;12.990;2022-08-25T00:55:54;23.17;;;17.38;;
5416;SDS011;2731;50.754;12.990;2022-08-25T00:58:21;21.88;;;16.13;;
5416;SDS011;2731;50.754;12.990;2022-08-25T01:00:50;21.50;;;17.15;;
5416;SDS011;2731;50.754;12.990;2022-08-25T01:03:17;20.90;;;16.05;;
5416;SDS011;2731;50.754;12.990;2022-08-25T01:05:43;21.77;;;16.23;;
5416;SDS011;2731;50.754;12.990;2022-08-25T01:08:09;22.58;;;15.15;;
5416;SDS011;2731;50.754;12.990;2022-08-25T01:10:35;23.40;;;16.20;;
5416;SDS011;2731;50.754;12.990;2022-08-25T01:13:07;18.23;;;15.15;;
5416;SDS011;2731;50.754;12.990;2022-08-25T01:15:36;19.88;;;15.55;;
5416;SDS011;2731;50.754;12.990;2022-08-25T01:18:01;21.90;;;14.82;;
5416;SDS011;2731;50.754;12.990;2022-08-25T01:20:27;20.83;;;15.57;;
5416;SDS011;2731;50.754;12.990;2022-08-25T01:22:55;22.17;;;16.38;;
5416;SDS011;2731;50.754;12.990;2022-08-25T01:25:28;20.92;;;15.68;;
5416;SDS011;2731;50.754;12.990;2022-08-25T01:28:15;20.65;;;15.45;;
5416;SDS011;2731;50.754;12.990;2022-08-25T01:30:41;20.30;;;15.68;;
5416;SDS011;2731;50.754;12.990;2022-08-25T01:33:07;19.20;;;14.93;;
5416;SDS011;2731;50.754;12.990;2022-08-25T01:35:34;20.88;;;15.48;;
5416;SDS011;2731;50.754;12.990;2022-08-25T01:38:01;22.45;;;15.30;;
5416;SDS011;2731;50.754;12.990;2022-08-25T01:40:27;18.20;;;14.90;;
5416;SDS011;2731;50.754;12.990;2022-08-25T01:45:22;18.85;;;14.85;;
5416;SDS011;2731;50.754;12.990;2022-08-25T01:47:48;20.83;;;14.90;;
5416;SDS011;2731;50.754;12.990;2022-08-25T01:50:13;20.08;;;15.25;;
5416;SDS011;2731;50.754;12.990;2022-08-25T01:55:16;19.42;;;16.42;;
5416;SDS011;2731;50.754;12.990;2022-08-25T01:57:41;18.10;;;15.32;;
5416;SDS011;2731;50.754;12.990;2022-08-25T02:00:08;23.50;;;16.05;;
5416;SDS011;2731;50.754;12.990;2022-08-25T02:02:34;21.10;;;15.90;;
5416;SDS011;2731;50.754;12.990;2022-08-25T02:05:01;21.95;;;15.05;;
5416;SDS011;2731;50.754;12.990;2022-08-25T02:07:28;20.38;;;15.10;;
5416;SDS011;2731;50.754;12.990;2022-08-25T02:09:53;21.40;;;15.75;;
5416;SDS011;2731;50.754;12.990;2022-08-25T02:12:18;18.92;;;16.45;;
5416;SDS011;2731;50.754;12.990;2022-08-25T02:14:44;20.88;;;15.25;;
5416;SDS011;2731;50.754;12.990;2022-08-25T02:17:10;17.38;;;14.65;;
5416;SDS011;2731;50.754;12.990;2022-08-25T02:19:35;20.70;;;15.15;;
5416;SDS011;2731;50.754;12.990;2022-08-25T02:22:00;25.52;;;14.90;;
5416;SDS011;2731;50.754;12.990;2022-08-25T02:24:31;22.00;;;15.57;;
5416;SDS011;2731;50.754;12.990;2022-08-25T02:26:56;17.63;;;14.73;;
5416;SDS011;2731;50.754;12.990;2022-08-25T02:29:22;23.20;;;17.33;;
5416;SDS011;2731;50.754;12.990;2022-08-25T02:31:47;23.73;;;17.20;;
5416;SDS011;2731;50.754;12.990;2022-08-25T02:34:13;18.08;;;15.32;;
5416;SDS011;2731;50.754;12.990;2022-08-25T02:36:39;23.05;;;15.93;;
5416;SDS011;2731;50.754;12.990;2022-08-25T02:39:06;20.75;;;16.52;;
5416;SDS011;2731;50.754;12.990;2022-08-25T02:41:32;19.77;;;15.85;;
5416;SDS011;2731;50.754;12.990;2022-08-25T02:43:58;22.63;;;16.33;;
5416;SDS011;2731;50.754;12.990;2022-08-25T02:46:24;21.50;;;16.25;;
5416;SDS011;2731;50.754;12.990;2022-08-25T02:48:50;23.70;;;16.17;;
5416;SDS011;2731;50.754;12.990;2022-08-25T02:51:17;26.52;;;18.55;;
5416;SDS011;2731;50.754;12.990;2022-08-25T02:53:42;22.80;;;17.70;;
5416;SDS011;2731;50.754;12.990;2022-08-25T02:56:10;24.50;;;17.00;;
5416;SDS011;2731;50.754;12.990;2022-08-25T02:58:37;21.25;;;16.60;;
5416;SDS011;2731;50.754;12.990;2022-08-25T03:01:04;25.95;;;18.02;;
5416;SDS011;2731;50.754;12.990;2022-08-25T03:03:31;31.50;;;18.67;;
5416;SDS011;2731;50.754;12.990;2022-08-25T03:05:57;25.25;;;16.90;;
5416;SDS011;2731;50.754;12.990;2022-08-25T03:08:23;22.67;;;16.67;;
5416;SDS011;2731;50.754;12.990;2022-08-25T03:10:49;23.30;;;17.50;;
5416;SDS011;2731;50.754;12.990;2022-08-25T03:13:14;25.63;;;16.95;;
5416;SDS011;2731;50.754;12.990;2022-08-25T03:15:40;20.70;;;17.25;;
5416;SDS011;2731;50.754;12.990;2022-08-25T03:18:06;21.08;;;16.73;;
5416;SDS011;2731;50.754;12.990;2022-08-25T03:20:32;20.73;;;15.25;;
5416;SDS011;2731;50.754;12.990;2022-08-25T03:22:59;22.63;;;17.48;;
5416;SDS011;2731;50.754;12.990;2022-08-25T03:25:25;23.90;;;17.30;;
5416;SDS011;2731;50.754;12.990;2022-08-25T03:28:09;21.77;;;16.17;;
5416;SDS011;2731;50.754;12.990;2022-08-25T03:30:35;19.65;;;15.85;;
5416;SDS011;2731;50.754;12.990;2022-08-25T03:33:00;22.33;;;16.15;;
5416;SDS011;2731;50.754;12.990;2022-08-25T03:35:25;26.05;;;15.98;;
5416;SDS011;2731;50.754;12.990;2022-08-25T03:37:55;21.85;;;15.30;;
5416;SDS011;2731;50.754;12.990;2022-08-25T03:40:21;23.10;;;16.27;;
5416;SDS011;2731;50.754;12.990;2022-08-25T03:42:47;23.02;;;15.65;;
5416;SDS011;2731;50.754;12.990;2022-08-25T03:45:13;23.00;;;16.33;;
5416;SDS011;2731;50.754;12.990;2022-08-25T03:47:40;20.85;;;15.02;;
5416;SDS011;2731;50.754;12.990;2022-08-25T03:50:06;21.27;;;15.50;;
5416;SDS011;2731;50.754;12.990;2022-08-25T03:52:33;22.90;;;16.15;;
5416;SDS011;2731;50.754;12.990;2022-08-25T03:54:59;20.13;;;15.32;;
5416;SDS011;2731;50.754;12.990;2022-08-25T03:57:24;19.88;;;14.93;;
5416;SDS011;2731;50.754;12.990;2022-08-25T03:59:50;16.85;;;13.90;;
5416;SDS011;2731;50.754;12.990;2022-08-25T04:02:16;20.27;;;16.15;;
5416;SDS011;2731;50.754;12.990;2022-08-25T04:04:42;18.02;;;14.35;;
5416;SDS011;2731;50.754;12.990;2022-08-25T04:07:07;19.50;;;14.48;;
5416;SDS011;2731;50.754;12.990;2022-08-25T04:09:33;21.15;;;15.70;;
5416;SDS011;2731;50.754;12.990;2022-08-25T04:11:58;18.27;;;14.32;;
5416;SDS011;2731;50.754;12.990;2022-08-25T04:14:23;20.63;;;15.25;;
5416;SDS011;2731;50.754;12.990;2022-08-25T04:16:49;20.00;;;15.32;;
5416;SDS011;2731;50.754;12.990;2022-08-25T04:19:15;21.70;;;15.52;;
5416;SDS011;2731;50.754;12.990;2022-08-25T04:21:40;20.55;;;14.63;;
5416;SDS011;2731;50.754;12.990;2022-08-25T04:24:07;20.48;;;14.40;;
5416;SDS011;2731;50.754;12.990;2022-08-25T04:26:37;22.45;;;15.55;;
5416;SDS011;2731;50.754;12.990;2022-08-25T04:29:06;17.88;;;14.60;;
5416;SDS011;2731;50.754;12.990;2022-08-25T04:31:33;20.83;;;15.68;;
5416;SDS011;2731;50.754;12.990;2022-08-25T04:34:03;21.35;;;15.07;;
5416;SDS011;2731;50.754;12.990;2022-08-25T04:36:29;19.23;;;14.75;;
5416;SDS011;2731;50.754;12.990;2022-08-25T04:38:54;21.30;;;15.40;;
5416;SDS011;2731;50.754;12.990;2022-08-25T04:41:20;22.08;;;15.60;;
5416;SDS011;2731;50.754;12.990;2022-08-25T04:43:49;20.02;;;15.25;;
5416;SDS011;2731;50.754;12.990;2022-08-25T04:46:22;21.13;;;14.63;;
5416;SDS011;2731;50.754;12.990;2022-08-25T04:48:50;21.05;;;15.38;;
5416;SDS011;2731;50.754;12.990;2022-08-25T04:51:19;23.38;;;16.25;;
5416;SDS011;2731;50.754;12.990;2022-08-25T04:53:47;19.98;;;15.55;;
5416;SDS011;2731;50.754;12.990;2022-08-25T04:56:14;21.30;;;15.60;;
5416;SDS011;2731;50.754;12.990;2022-08-25T04:58:42;24.38;;;16.65;;
5416;SDS011;2731;50.754;12.990;2022-08-25T05:01:11;23.08;;;15.95;;
5416;SDS011;2731;50.754;12.990;2022-08-25T05:03:39;20.05;;;15.80;;
5416;SDS011;2731;50.754;12.990;2022-08-25T05:06:05;20.05;;;15.05;;
5416;SDS011;2731;50.754;12.990;2022-08-25T05:08:31;20.77;;;15.90;;
5416;SDS011;2731;50.754;12.990;2022-08-25T05:10:57;25.58;;;16.92;;
5416;SDS011;2731;50.754;12.990;2022-08-25T05:13:23;24.42;;;16.20;;
5416;SDS011;2731;50.754;12.990;2022-08-25T05:15:53;24.48;;;15.90;;
5416;SDS011;2731;50.754;12.990;2022-08-25T05:18:20;25.30;;;16.55;;
5416;SDS011;2731;50.754;12.990;2022-08-25T05:20:47;21.00;;;15.65;;
5416;SDS011;2731;50.754;12.990;2022-08-25T05:23:12;24.17;;;17.63;;
5416;SDS011;2731;50.754;12.990;2022-08-25T05:25:37;23.55;;;16.33;;
5416;SDS011;2731;50.754;12.990;2022-08-25T05:28:04;23.63;;;16.58;;
5416;SDS011;2731;50.754;12.990;2022-08-25T05:30:29;21.92;;;17.13;;
5416;SDS011;2731;50.754;12.990;2022-08-25T05:32:55;25.67;;;17.23;;
5416;SDS011;2731;50.754;12.990;2022-08-25T05:35:21;26.10;;;17.05;;
5416;SDS011;2731;50.754;12.990;2022-08-25T05:37:46;28.25;;;18.80;;
5416;SDS011;2731;50.754;12.990;2022-08-25T05:40:12;24.95;;;18.08;;
5416;SDS011;2731;50.754;12.990;2022-08-25T05:42:37;22.88;;;17.00;;
5416;SDS011;2731;50.754;12.990;2022-08-25T05:45:03;30.38;;;19.48;;
5416;SDS011;2731;50.754;12.990;2022-08-25T05:47:29;27.48;;;18.80;;
5416;SDS011;2731;50.754;12.990;2022-08-25T05:49:54;27.45;;;19.85;;
5416;SDS011;2731;50.754;12.990;2022-08-25T05:52:21;28.58;;;18.02;;
5416;SDS011;2731;50.754;12.990;2022-08-25T05:54:50;29.20;;;19.67;;
5416;SDS011;2731;50.754;12.990;2022-08-25T05:57:15;26.35;;;18.23;;
5416;SDS011;2731;50.754;12.990;2022-08-25T05:59:40;27.42;;;17.80;;
5416;SDS011;2731;50.754;12.990;2022-08-25T06:02:06;24.80;;;17.83;;
5416;SDS011;2731;50.754;12.990;2022-08-25T06:04:50;27.52;;;17.83;;
5416;SDS011;2731;50.754;12.990;2022-08-25T06:07:16;24.83;;;17.15;;
5416;SDS011;2731;50.754;12.990;2022-08-25T06:09:41;28.25;;;18.58;;
5416;SDS011;2731;50.754;12.990;2022-08-25T06:12:09;27.85;;;17.85;;
5416;SDS011;2731;50.754;12.990;2022-08-25T06:14:35;29.38;;;18.42;;
5416;SDS011;2731;50.754;12.990;2022-08-25T06:17:00;29.70;;;18.48;;
5416;SDS011;2731;50.754;12.990;2022-08-25T06:19:26;28.15;;;20.08;;
5416;SDS011;2731;50.754;12.990;2022-08-25T06:21:52;26.85;;;18.17;;
5416;SDS011;2731;50.754;12.990;2022-08-25T06:24:19;26.85;;;19.15;;
5416;SDS011;2731;50.754;12.990;2022-08-25T06:26:44;30.00;;;18.67;;
5416;SDS011;2731;50.754;12.990;2022-08-25T06:29:10;30.45;;;19.42;;
5416;SDS011;2731;50.754;12.990;2022-08-25T06:31:37;28.55;;;19.75;;
5416;SDS011;2731;50.754;12.990;2022-08-25T06:34:03;31.10;;;20.80;;
5416;SDS011;2731;50.754;12.990;2022-08-25T06:36:30;32.45;;;21.00;;
5416;SDS011;2731;50.754;12.990;2022-08-25T06:38:56;30.55;;;21.30;;
5416;SDS011;2731;50.754;12.990;2022-08-25T06:41:23;35.38;;;21.25;;
5416;SDS011;2731;50.754;12.990;2022-08-25T06:43:50;33.13;;;21.48;;
5416;SDS011;2731;50.754;12.990;2022-08-25T06:46:19;30.17;;;20.13;;
5416;SDS011;2731;50.754;12.990;2022-08-25T06:48:46;27.30;;;19.83;;
5416;SDS011;2731;50.754;12.990;2022-08-25T06:51:13;28.17;;;20.30;;
5416;SDS011;2731;50.754;12.990;2022-08-25T06:53:39;33.00;;;21.20;;
5416;SDS011;2731;50.754;12.990;2022-08-25T06:56:05;27.38;;;19.48;;
5416;SDS011;2731;50.754;12.990;2022-08-25T06:58:31;28.73;;;20.67;;
5416;SDS011;2731;50.754;12.990;2022-08-25T07:01:05;31.27;;;20.50;;
5416;SDS011;2731;50.754;12.990;2022-08-25T07:03:34;25.70;;;19.52;;
5416;SDS011;2731;50.754;12.990;2022-08-25T07:05:59;25.50;;;18.25;;
5416;SDS011;2731;50.754;12.990;2022-08-25T07:08:25;30.70;;;21.08;;
5416;SDS011;2731;50.754;12.990;2022-08-25T07:10:50;27.20;;;19.38;;
5416;SDS011;2731;50.754;12.990;2022-08-25T07:13:16;27.45;;;19.60;;
5416;SDS011;2731;50.754;12.990;2022-08-25T07:15:43;31.55;;;20.33;;
5416;SDS011;2731;50.754;12.990;2022-08-25T07:18:08;28.25;;;19.27;;
5416;SDS011;2731;50.754;12.990;2022-08-25T07:20:35;22.52;;;17.55;;
5416;SDS011;2731;50.754;12.990;2022-08-25T07:23:02;23.52;;;17.35;;
5416;SDS011;2731;50.754;12.990;2022-08-25T07:25:28;21.08;;;16.02;;
5416;SDS011;2731;50.754;12.990;2022-08-25T07:27:54;25.38;;;17.25;;
5416;SDS011;2731;50.754;12.990;2022-08-25T07:30:20;22.35;;;15.77;;
5416;SDS011;2731;50.754;12.990;2022-08-25T07:32:47;21.13;;;14.77;;
5416;SDS011;2731;50.754;12.990;2022-08-25T07:35:13;17.17;;;13.57;;
5416;SDS011;2731;50.754;12.990;2022-08-25T07:37:40;17.67;;;13.13;;
5416;SDS011;2731;50.754;12.990;2022-08-25T07:40:13;18.55;;;13.45;;
5416;SDS011;2731;50.754;12.990;2022-08-25T07:42:51;16.58;;;12.73;;
5416;SDS011;2731;50.754;12.990;2022-08-25T07:45:28;16.92;;;13.48;;
5416;SDS011;2731;50.754;12.990;2022-08-25T07:47:59;18.27;;;12.73;;
5416;SDS011;2731;50.754;12.990;2022-08-25T07:50:27;20.90;;;12.50;;
5416;SDS011;2731;50.754;12.990;2022-08-25T07:52:53;17.00;;;12.15;;
5416;SDS011;2731;50.754;12.990;2022-08-25T07:55:20;15.30;;;12.77;;
5416;SDS011;2731;50.754;12.990;2022-08-25T07:57:51;17.40;;;11.60;;
5416;SDS011;2731;50.754;12.990;2022-08-25T08:00:17;13.98;;;11.00;;
5416;SDS011;2731;50.754;12.990;2022-08-25T08:02:43;15.55;;;10.52;;
5416;SDS011;2731;50.754;12.990;2022-08-25T08:05:09;15.18;;;10.48;;
5416;SDS011;2731;50.754;12.990;2022-08-25T08:07:35;16.73;;;9.43;;
5416;SDS011;2731;50.754;12.990;2022-08-25T08:10:01;16.48;;;11.50;;
5416;SDS011;2731;50.754;12.990;2022-08-25T08:12:28;16.67;;;10.85;;
5416;SDS011;2731;50.754;12.990;2022-08-25T08:14:53;13.52;;;9.88;;
5416;SDS011;2731;50.754;12.990;2022-08-25T08:17:19;12.80;;;10.77;;
5416;SDS011;2731;50.754;12.990;2022-08-25T08:19:45;14.35;;;9.88;;
5416;SDS011;2731;50.754;12.990;2022-08-25T08:22:10;14.70;;;9.57;;
5416;SDS011;2731;50.754;12.990;2022-08-25T08:24:38;14.77;;;10.38;;
5416;SDS011;2731;50.754;12.990;2022-08-25T08:27:05;13.57;;;9.68;;
5416;SDS011;2731;50.754;12.990;2022-08-25T08:29:31;13.60;;;9.57;;
5416;SDS011;2731;50.754;12.990;2022-08-25T08:31:59;17.50;;;9.70;;
5416;SDS011;2731;50.754;12.990;2022-08-25T08:34:25;14.05;;;9.32;;
5416;SDS011;2731;50.754;12.990;2022-08-25T08:36:51;14.10;;;8.93;;
5416;SDS011;2731;50.754;12.990;2022-08-25T08:39:16;17.05;;;9.48;;
5416;SDS011;2731;50.754;12.990;2022-08-25T08:50:34;14.82;;;8.23;;
5416;SDS011;2731;50.754;12.990;2022-08-25T08:55:58;15.57;;;8.30;;
5416;SDS011;2731;50.754;12.990;2022-08-25T08:58:38;17.58;;;8.80;;
5416;SDS011;2731;50.754;12.990;2022-08-25T09:01:10;19.13;;;8.60;;
5416;SDS011;2731;50.754;12.990;2022-08-25T09:03:48;16.90;;;8.93;;
5416;SDS011;2731;50.754;12.990;2022-08-25T09:06:21;15.50;;;7.80;;
5416;SDS011;2731;50.754;12.990;2022-08-25T09:08:51;15.90;;;7.45;;
5416;SDS011;2731;50.754;12.990;2022-08-25T09:25:49;14.43;;;7.70;;
5416;SDS011;2731;50.754;12.990;2022-08-25T09:31:16;14.50;;;8.10;;
5416;SDS011;2731;50.754;12.990;2022-08-25T09:33:43;15.60;;;7.97;;
5416;SDS011;2731;50.754;12.990;2022-08-25T09:36:09;17.65;;;7.22;;
5416;SDS011;2731;50.754;12.990;2022-08-25T09:38:34;18.98;;;7.93;;
5416;SDS011;2731;50.754;12.990;2022-08-25T09:41:00;14.32;;;7.32;;
5416;SDS011;2731;50.754;12.990;2022-08-25T09:43:31;13.95;;;7.72;;
5416;SDS011;2731;50.754;12.990;2022-08-25T09:48:45;11.00;;;7.03;;
5416;SDS011;2731;50.754;12.990;2022-08-25T09:51:17;13.63;;;6.55;;
5416;SDS011;2731;50.754;12.990;2022-08-25T09:53:58;15.75;;;6.90;;
5416;SDS011;2731;50.754;12.990;2022-08-25T09:56:28;11.55;;;6.85;;
5416;SDS011;2731;50.754;12.990;2022-08-25T09:58:56;17.30;;;7.03;;
5416;SDS011;2731;50.754;12.990;2022-08-25T10:09:01;12.57;;;6.50;;
5416;SDS011;2731;50.754;12.990;2022-08-25T10:11:31;14.48;;;6.70;;
5416;SDS011;2731;50.754;12.990;2022-08-25T10:14:19;13.45;;;6.28;;
5416;SDS011;2731;50.754;12.990;2022-08-25T10:16:51;16.45;;;7.93;;
5416;SDS011;2731;50.754;12.990;2022-08-25T10:22:00;16.30;;;6.57;;
5416;SDS011;2731;50.754;12.990;2022-08-25T10:24:27;10.85;;;6.85;;
5416;SDS011;2731;50.754;12.990;2022-08-25T10:27:05;11.60;;;5.93;;
5416;SDS011;2731;50.754;12.990;2022-08-25T10:33:14;12.52;;;6.35;;
5416;SDS011;2731;50.754;12.990;2022-08-25T10:47:28;10.82;;;7.10;;
5416;SDS011;2731;50.754;12.990;2022-08-25T10:58:48;13.95;;;6.95;;
5416;SDS011;2731;50.754;12.990;2022-08-25T11:04:43;13.63;;;6.30;;
5416;SDS011;2731;50.754;12.990;2022-08-25T11:07:21;12.35;;;6.05;;
5416;SDS011;2731;50.754;12.990;2022-08-25T11:09:49;11.27;;;6.07;;
5416;SDS011;2731;50.754;12.990;2022-08-25T11:12:21;17.27;;;6.72;;
5416;SDS011;2731;50.754;12.990;2022-08-25T11:15:18;15.25;;;6.07;;
5416;SDS011;2731;50.754;12.990;2022-08-25T11:20:25;14.23;;;6.40;;
5416;SDS011;2731;50.754;12.990;2022-08-25T11:23:11;14.93;;;6.10;;
5416;SDS011;2731;50.754;12.990;2022-08-25T11:25:44;18.38;;;6.13;;
5416;SDS011;2731;50.754;12.990;2022-08-25T11:31:13;15.32;;;6.32;;
5416;SDS011;2731;50.754;12.990;2022-08-25T11:33:39;26.40;;;7.63;;
5416;SDS011;2731;50.754;12.990;2022-08-25T11:36:11;13.77;;;6.13;;
5416;SDS011;2731;50.754;12.990;2022-08-25T11:42:26;17.55;;;6.30;;
5416;SDS011;2731;50.754;12.990;2022-08-25T11:48:17;18.42;;;5.55;;
5416;SDS011;2731;50.754;12.990;2022-08-25T11:50:57;15.25;;;6.57;;
5416;SDS011;2731;50.754;12.990;2022-08-25T11:53:32;13.80;;;6.32;;
5416;SDS011;2731;50.754;12.990;2022-08-25T11:56:11;20.48;;;5.68;;
5416;SDS011;2731;50.754;12.990;2022-08-25T11:59:07;19.08;;;6.45;;
5416;SDS011;2731;50.754;12.990;2022-08-25T12:12:57;17.02;;;6.72;;
5416;SDS011;2731;50.754;12.990;2022-08-25T12:23:33;23.08;;;6.22;;
5416;SDS011;2731;50.754;12.990;2022-08-25T12:26:01;19.75;;;6.43;;
5416;SDS011;2731;50.754;12.990;2022-08-25T12:28:36;18.02;;;6.50;;
5416;SDS011;2731;50.754;12.990;2022-08-25T12:31:14;16.85;;;5.90;;
5416;SDS011;2731;50.754;12.990;2022-08-25T12:34:15;18.90;;;7.68;;
5416;SDS011;2731;50.754;12.990;2022-08-25T12:36:58;16.55;;;6.50;;
5416;SDS011;2731;50.754;12.990;2022-08-25T12:39:32;17.48;;;6.55;;
5416;SDS011;2731;50.754;12.990;2022-08-25T12:42:01;16.17;;;5.75;;
5416;SDS011;2731;50.754;12.990;2022-08-25T12:44:42;18.55;;;7.03;;
5416;SDS011;2731;50.754;12.990;2022-08-25T12:49:51;13.70;;;6.03;;
5416;SDS011;2731;50.754;12.990;2022-08-25T12:52:20;13.80;;;6.40;;
5416;SDS011;2731;50.754;12.990;2022-08-25T12:57:44;11.18;;;4.95;;
5416;SDS011;2731;50.754;12.990;2022-08-25T13:00:33;12.85;;;5.28;;
5416;SDS011;2731;50.754;12.990;2022-08-25T13:11:41;16.67;;;6.60;;
5416;SDS011;2731;50.754;12.990;2022-08-25T13:14:25;17.75;;;5.78;;
5416;SDS011;2731;50.754;12.990;2022-08-25T13:17:06;19.15;;;6.35;;
5416;SDS011;2731;50.754;12.990;2022-08-25T13:19:33;11.77;;;5.72;;
5416;SDS011;2731;50.754;12.990;2022-08-25T13:21:59;11.38;;;5.40;;
5416;SDS011;2731;50.754;12.990;2022-08-25T13:24:34;10.63;;;4.57;;
5416;SDS011;2731;50.754;12.990;2022-08-25T13:27:03;16.02;;;6.55;;
5416;SDS011;2731;50.754;12.990;2022-08-25T13:29:36;18.27;;;5.57;;
5416;SDS011;2731;50.754;12.990;2022-08-25T13:32:16;13.18;;;5.90;;
5416;SDS011;2731;50.754;12.990;2022-08-25T13:34:52;10.45;;;5.30;;
5416;SDS011;2731;50.754;12.990;2022-08-25T13:37:35;11.02;;;5.72;;
5416;SDS011;2731;50.754;12.990;2022-08-25T13:43:22;12.82;;;6.55;;
5416;SDS011;2731;50.754;12.990;2022-08-25T13:45:47;16.00;;;5.32;;
5416;SDS011;2731;50.754;12.990;2022-08-25T13:48:13;11.05;;;5.43;;
5416;SDS011;2731;50.754;12.990;2022-08-25T13:51:09;18.70;;;5.40;;
5416;SDS011;2731;50.754;12.990;2022-08-25T13:53:53;11.15;;;5.47;;
5416;SDS011;2731;50.754;12.990;2022-08-25T13:56:23;13.57;;;5.57;;
5416;SDS011;2731;50.754;12.990;2022-08-25T13:58:51;17.38;;;6.20;;
5416;SDS011;2731;50.754;12.990;2022-08-25T14:03:50;14.25;;;6.03;;
5416;SDS011;2731;50.754;12.990;2022-08-25T14:11:40;15.75;;;6.10;;
5416;SDS011;2731;50.754;12.990;2022-08-25T14:14:29;12.73;;;5.90;;
5416;SDS011;2731;50.754;12.990;2022-08-25T14:17:04;10.88;;;5.80;;
5416;SDS011;2731;50.754;12.990;2022-08-25T14:19:33;15.23;;;6.00;;
5416;SDS011;2731;50.754;12.990;2022-08-25T14:22:01;13.05;;;5.78;;
5416;SDS011;2731;50.754;12.990;2022-08-25T14:24:32;7.90;;;5.43;;
5416;SDS011;2731;50.754;12.990;2022-08-25T14:27:00;12.40;;;5.80;;
5416;SDS011;2731;50.754;12.990;2022-08-25T14:29:28;15.27;;;6.65;;
5416;SDS011;2731;50.754;12.990;2022-08-25T14:31:54;13.88;;;6.05;;
5416;SDS011;2731;50.754;12.990;2022-08-25T14:34:22;9.98;;;6.00;;
5416;SDS011;2731;50.754;12.990;2022-08-25T14:36:54;17.00;;;6.90;;
5416;SDS011;2731;50.754;12.990;2022-08-25T14:39:19;11.85;;;5.57;;
5416;SDS011;2731;50.754;12.990;2022-08-25T14:41:45;15.88;;;6.38;;
5416;SDS011;2731;50.754;12.990;2022-08-25T14:44:12;15.82;;;5.57;;
5416;SDS011;2731;50.754;12.990;2022-08-25T14:46:42;11.88;;;5.68;;
5416;SDS011;2731;50.754;12.990;2022-08-25T14:51:37;16.23;;;6.20;;
5416;SDS011;2731;50.754;12.990;2022-08-25T14:54:05;15.18;;;6.35;;
5416;SDS011;2731;50.754;12.990;2022-08-25T14:56:32;15.05;;;6.35;;
5416;SDS011;2731;50.754;12.990;2022-08-25T14:58:58;15.63;;;5.55;;
5416;SDS011;2731;50.754;12.990;2022-08-25T15:01:27;13.10;;;5.40;;
5416;SDS011;2731;50.754;12.990;2022-08-25T15:04:00;17.98;;;6.97;;
5416;SDS011;2731;50.754;12.990;2022-08-25T15:06:33;13.68;;;5.43;;
5416;SDS011;2731;50.754;12.990;2022-08-25T15:09:02;11.10;;;6.20;;
5416;SDS011;2731;50.754;12.990;2022-08-25T15:11:46;11.80;;;6.18;;
5416;SDS011;2731;50.754;12.990;2022-08-25T15:14:15;13.10;;;6.40;;
5416;SDS011;2731;50.754;12.990;2022-08-25T15:16:43;14.10;;;6.75;;
5416;SDS011;2731;50.754;12.990;2022-08-25T15:19:11;13.60;;;6.50;;
5416;SDS011;2731;50.754;12.990;2022-08-25T15:21:42;16.40;;;5.80;;
5416;SDS011;2731;50.754;12.990;2022-08-25T15:24:12;14.20;;;6.03;;
5416;SDS011;2731;50.754;12.990;2022-08-25T15:26:39;15.93;;;5.80;;
5416;SDS011;2731;50.754;12.990;2022-08-25T15:29:10;14.45;;;6.97;;
5416;SDS011;2731;50.754;12.990;2022-08-25T15:31:36;7.35;;;5.10;;
5416;SDS011;2731;50.754;12.990;2022-08-25T15:34:04;9.15;;;5.68;;
5416;SDS011;2731;50.754;12.990;2022-08-25T15:36:31;9.43;;;5.82;;
5416;SDS011;2731;50.754;12.990;2022-08-25T15:38:58;11.82;;;5.28;;
5416;SDS011;2731;50.754;12.990;2022-08-25T15:41:26;9.60;;;5.80;;
5416;SDS011;2731;50.754;12.990;2022-08-25T15:43:56;15.55;;;6.13;;
5416;SDS011;2731;50.754;12.990;2022-08-25T15:46:25;16.65;;;6.18;;
5416;SDS011;2731;50.754;12.990;2022-08-25T15:49:04;8.88;;;5.25;;
5416;SDS011;2731;50.754;12.990;2022-08-25T15:51:29;17.65;;;6.70;;
5416;SDS011;2731;50.754;12.990;2022-08-25T15:53:55;11.43;;;5.38;;
5416;SDS011;2731;50.754;12.990;2022-08-25T15:56:21;14.73;;;6.18;;
5416;SDS011;2731;50.754;12.990;2022-08-25T15:58:47;12.38;;;6.20;;
5416;SDS011;2731;50.754;12.990;2022-08-25T16:01:15;10.82;;;5.63;;
5416;SDS011;2731;50.754;12.990;2022-08-25T16:03:42;11.38;;;5.93;;
5416;SDS011;2731;50.754;12.990;2022-08-25T16:06:09;17.17;;;5.90;;
5416;SDS011;2731;50.754;12.990;2022-08-25T16:08:37;12.25;;;5.82;;
5416;SDS011;2731;50.754;12.990;2022-08-25T16:11:18;15.55;;;5.68;;
5416;SDS011;2731;50.754;12.990;2022-08-25T16:13:48;14.93;;;6.15;;
5416;SDS011;2731;50.754;12.990;2022-08-25T16:16:18;15.88;;;5.38;;
5416;SDS011;2731;50.754;12.990;2022-08-25T16:18:45;10.65;;;5.35;;
5416;SDS011;2731;50.754;12.990;2022-08-25T16:21:13;13.77;;;6.03;;
5416;SDS011;2731;50.754;12.990;2022-08-25T16:23:42;12.35;;;5.95;;
5416;SDS011;2731;50.754;12.990;2022-08-25T16:26:08;11.68;;;5.97;;
5416;SDS011;2731;50.754;12.990;2022-08-25T16:28:34;16.00;;;6.03;;
5416;SDS011;2731;50.754;12.990;2022-08-25T16:31:01;12.15;;;6.03;;
5416;SDS011;2731;50.754;12.990;2022-08-25T16:33:27;11.95;;;5.55;;
5416;SDS011;2731;50.754;12.990;2022-08-25T16:35:54;9.00;;;5.70;;
5416;SDS011;2731;50.754;12.990;2022-08-25T16:38:34;11.63;;;6.28;;
5416;SDS011;2731;50.754;12.990;2022-08-25T16:41:11;19.23;;;6.93;;
5416;SDS011;2731;50.754;12.990;2022-08-25T16:43:39;15.48;;;6.65;;
5416;SDS011;2731;50.754;12.990;2022-08-25T16:46:06;15.90;;;6.55;;
5416;SDS011;2731;50.754;12.990;2022-08-25T16:48:32;15.52;;;7.10;;
5416;SDS011;2731;50.754;12.990;2022-08-25T16:50:58;15.02;;;6.30;;
5416;SDS011;2731;50.754;12.990;2022-08-25T16:53:25;13.07;;;6.38;;
5416;SDS011;2731;50.754;12.990;2022-08-25T16:56:09;15.27;;;6.15;;
5416;SDS011;2731;50.754;12.990;2022-08-25T16:58:35;14.55;;;6.38;;
5416;SDS011;2731;50.754;12.990;2022-08-25T17:01:04;18.00;;;6.93;;
5416;SDS011;2731;50.754;12.990;2022-08-25T17:03:36;13.38;;;6.25;;
5416;SDS011;2731;50.754;12.990;2022-08-25T17:06:03;11.90;;;6.38;;